createdAt,value
2022-10-18T00:05:47.642Z,96.0
2022-10-18T00:19:47.768Z,96.0
2022-10-18T00:33:47.760Z,96.0
2022-10-18T00:47:47.766Z,97.0
2022-10-18T01:01:47.808Z,97.0
2022-10-18T01:15:47.836Z,96.0
2022-10-18T01:29:47.949Z,96.0
2022-10-18T01:43:48.056Z,96.0
2022-10-18T01:57:48.080Z,96.0
2022-10-18T02:11:48.057Z,97.0
2022-10-18T02:25:48.065Z,97.0
2022-10-18T02:39:48.069Z,97.0
2022-10-18T02:53:48.085Z,97.0
2022-10-18T03:07:48.087Z,98.0
2022-10-18T03:21:48.087Z,97.0
2022-10-18T03:35:48.093Z,97.0
2022-10-18T03:49:49.971Z,97.0
2022-10-18T04:03:48.118Z,97.0
2022-10-18T04:17:48.183Z,97.0
2022-10-18T04:31:48.186Z,98.0
2022-10-18T04:45:48.190Z,98.0
2022-10-18T04:59:48.186Z,97.0
2022-10-18T05:13:48.673Z,96.0
2022-10-18T05:28:48.391Z,96.0
2022-10-18T05:43:48.434Z,97.0
2022-10-18T05:58:48.443Z,97.0
2022-10-18T06:13:48.425Z,97.0
2022-10-18T06:28:48.459Z,97.0
2022-10-18T06:43:48.444Z,96.0
2022-10-18T06:58:48.507Z,96.0
2022-10-18T07:13:48.488Z,96.0
2022-10-18T07:28:48.585Z,89.0
2022-10-18T07:43:48.547Z,77.0
2022-10-18T07:58:48.562Z,69.0
2022-10-18T08:13:48.654Z,67.0
2022-10-18T08:28:53.501Z,68.0
2022-10-18T08:43:48.750Z,68.0
2022-10-18T08:58:48.756Z,68.0
2022-10-18T09:13:48.760Z,66.0
2022-10-18T09:28:48.842Z,63.0
2022-10-18T09:43:48.793Z,63.0
2022-10-18T09:58:48.822Z,64.0
2022-10-18T10:13:48.903Z,66.0
2022-10-18T10:28:49.102Z,65.0
2022-10-18T10:43:49.048Z,64.0
2022-10-18T11:05:33.711Z,63.0
2022-10-18T11:20:33.719Z,61.0
2022-10-18T11:35:33.995Z,61.0
2022-10-18T11:50:33.925Z,59.0
2022-10-18T12:06:33.972Z,59.0
2022-10-18T12:21:34.050Z,56.0
2022-10-18T12:36:33.968Z,56.0
2022-10-18T12:51:34.235Z,56.0
2022-10-18T13:06:34.319Z,55.0
2022-10-18T13:21:34.480Z,54.0
2022-10-18T13:36:34.661Z,53.0
2022-10-18T13:51:34.847Z,53.0
2022-10-18T14:06:34.867Z,53.0
2022-10-18T14:21:34.868Z,55.0
2022-10-18T14:36:34.899Z,54.0
2022-10-18T14:51:34.887Z,55.0
2022-10-18T15:06:34.897Z,58.0
2022-10-18T15:21:35.003Z,61.0
2022-10-18T15:36:35.022Z,68.0
2022-10-18T15:51:34.997Z,75.0
2022-10-18T16:06:35.008Z,79.0
2022-10-18T16:21:35.012Z,82.0
2022-10-18T16:36:35.024Z,85.0
2022-10-18T16:51:35.034Z,87.0
2022-10-18T17:02:15.120Z,86.0
2022-10-18T17:16:15.228Z,86.0
2022-10-18T17:30:15.229Z,84.0
2022-10-18T17:44:15.468Z,87.0
2022-10-18T17:58:15.543Z,89.0
2022-10-18T18:12:15.557Z,90.0
2022-10-18T18:26:15.663Z,89.0
2022-10-18T18:41:15.955Z,91.0
2022-10-18T18:55:15.763Z,92.0
2022-10-18T19:09:15.809Z,93.0
2022-10-18T19:23:15.934Z,93.0
2022-10-18T19:37:15.831Z,94.0
2022-10-18T19:51:17.396Z,94.0
2022-10-18T20:05:16.095Z,94.0
2022-10-18T20:19:16.012Z,95.0
2022-10-18T20:33:16.080Z,94.0
2022-10-18T20:47:16.100Z,95.0
2022-10-18T21:01:16.129Z,95.0
2022-10-18T21:15:16.110Z,96.0
2022-10-18T21:29:19.523Z,96.0
2022-10-18T21:43:16.351Z,96.0
2022-10-18T21:57:16.630Z,97.0
2022-10-18T22:11:16.611Z,97.0
2022-10-18T22:25:16.605Z,97.0
2022-10-18T22:39:16.611Z,97.0
2022-10-18T22:53:16.645Z,97.0
2022-10-18T23:07:16.628Z,97.0
2022-10-18T23:21:16.731Z,97.0
2022-10-18T23:35:16.713Z,96.0
2022-10-18T23:49:16.728Z,97.0
